MUCM/CMW METAR and TAF weather

Enter ICAO airport designator
Station Type Date Time Source
MUCM METAR 2021/01/16 02:50 UTC NOAA

MUCM 160250Z 33002KT 9000 FEW020 22/20 Q1015


Station Type Date Time Source
MUCM Decoded METAR 2021/01/16 02:50 UTC NOAA

Camaguey Aeropuerto, Cuba (MUCM) 21-25N 077-51W 118M
Jan 15, 2021 - 09:50 PM EST / 2021.01.16 0250 UTC
Wind: from the NNW (330 degrees) at 2 MPH (2 KT):0
Visibility: 5 mile(s):0
Sky conditions: mostly clear
Temperature: 71 F (22 C)
Dew Point: 68 F (20 C)
Relative Humidity: 88%
Pressure (altimeter): 29.97 in. Hg (1015 hPa)
ob: MUCM 160250Z 33002KT 9000 FEW020 22/20 Q1015
cycle: 3

Station Type Date Time Source
MUCM TAF 2021/01/15 18:03 UTC NOAA

TAF MUCM 151700Z 1518/1618 VRB03KT 9000 SCT020

Example: see airport list